sensor_id;sensor_type;location;lat;lon;timestamp;P1;durP1;ratioP1;P2;durP2;ratioP2
73693;SDS011;61997;53.974;11.670;2023-05-16T00:01:32;8.18;;;5.50;;
73693;SDS011;61997;53.974;11.670;2023-05-16T00:03:59;7.38;;;5.38;;
73693;SDS011;61997;53.974;11.670;2023-05-16T00:06:25;8.63;;;5.53;;
73693;SDS011;61997;53.974;11.670;2023-05-16T00:08:50;6.03;;;4.80;;
73693;SDS011;61997;53.974;11.670;2023-05-16T00:11:16;8.77;;;5.25;;
73693;SDS011;61997;53.974;11.670;2023-05-16T00:13:41;7.70;;;5.40;;
73693;SDS011;61997;53.974;11.670;2023-05-16T00:16:07;6.13;;;5.10;;
73693;SDS011;61997;53.974;11.670;2023-05-16T00:18:33;7.75;;;5.13;;
73693;SDS011;61997;53.974;11.670;2023-05-16T00:21:01;6.53;;;4.82;;
73693;SDS011;61997;53.974;11.670;2023-05-16T00:23:27;6.78;;;4.95;;
73693;SDS011;61997;53.974;11.670;2023-05-16T00:25:53;5.88;;;4.68;;
73693;SDS011;61997;53.974;11.670;2023-05-16T00:28:18;6.15;;;4.90;;
73693;SDS011;61997;53.974;11.670;2023-05-16T00:30:43;5.68;;;4.30;;
73693;SDS011;61997;53.974;11.670;2023-05-16T00:33:09;6.30;;;5.05;;
73693;SDS011;61997;53.974;11.670;2023-05-16T00:35:34;7.40;;;5.13;;
73693;SDS011;61997;53.974;11.670;2023-05-16T00:37:59;7.53;;;5.18;;
73693;SDS011;61997;53.974;11.670;2023-05-16T00:40:25;6.22;;;4.50;;
73693;SDS011;61997;53.974;11.670;2023-05-16T00:42:50;6.57;;;4.70;;
73693;SDS011;61997;53.974;11.670;2023-05-16T00:45:16;6.80;;;4.50;;
73693;SDS011;61997;53.974;11.670;2023-05-16T00:47:41;6.13;;;4.18;;
73693;SDS011;61997;53.974;11.670;2023-05-16T00:50:06;5.43;;;4.15;;
73693;SDS011;61997;53.974;11.670;2023-05-16T00:52:32;8.38;;;5.00;;
73693;SDS011;61997;53.974;11.670;2023-05-16T00:54:57;7.05;;;4.80;;
73693;SDS011;61997;53.974;11.670;2023-05-16T00:57:23;8.25;;;4.60;;
73693;SDS011;61997;53.974;11.670;2023-05-16T00:59:49;5.63;;;4.50;;
73693;SDS011;61997;53.974;11.670;2023-05-16T01:02:14;6.00;;;4.47;;
73693;SDS011;61997;53.974;11.670;2023-05-16T01:04:40;7.47;;;4.05;;
73693;SDS011;61997;53.974;11.670;2023-05-16T01:07:06;5.65;;;3.78;;
73693;SDS011;61997;53.974;11.670;2023-05-16T01:09:31;7.75;;;4.60;;
73693;SDS011;61997;53.974;11.670;2023-05-16T01:22:51;5.18;;;3.85;;
73693;SDS011;61997;53.974;11.670;2023-05-16T01:27:52;5.03;;;3.58;;
73693;SDS011;61997;53.974;11.670;2023-05-16T01:30:18;6.10;;;4.22;;
73693;SDS011;61997;53.974;11.670;2023-05-16T01:32:44;4.97;;;3.90;;
73693;SDS011;61997;53.974;11.670;2023-05-16T01:35:12;5.22;;;4.00;;
73693;SDS011;61997;53.974;11.670;2023-05-16T01:37:41;5.80;;;3.85;;
73693;SDS011;61997;53.974;11.670;2023-05-16T01:40:15;5.22;;;3.63;;
73693;SDS011;61997;53.974;11.670;2023-05-16T01:42:49;5.40;;;3.70;;
73693;SDS011;61997;53.974;11.670;2023-05-16T01:45:17;6.25;;;3.97;;
73693;SDS011;61997;53.974;11.670;2023-05-16T01:47:46;4.18;;;3.42;;
73693;SDS011;61997;53.974;11.670;2023-05-16T01:50:19;6.22;;;4.40;;
73693;SDS011;61997;53.974;11.670;2023-05-16T01:52:49;5.28;;;3.80;;
73693;SDS011;61997;53.974;11.670;2023-05-16T01:55:23;5.07;;;3.70;;
73693;SDS011;61997;53.974;11.670;2023-05-16T01:58:02;4.95;;;3.70;;
73693;SDS011;61997;53.974;11.670;2023-05-16T02:00:29;6.53;;;3.60;;
73693;SDS011;61997;53.974;11.670;2023-05-16T02:02:55;4.90;;;3.45;;
73693;SDS011;61997;53.974;11.670;2023-05-16T02:05:21;5.20;;;3.60;;
73693;SDS011;61997;53.974;11.670;2023-05-16T02:07:46;6.30;;;4.20;;
73693;SDS011;61997;53.974;11.670;2023-05-16T02:10:12;5.22;;;3.45;;
73693;SDS011;61997;53.974;11.670;2023-05-16T02:12:38;6.15;;;3.67;;
73693;SDS011;61997;53.974;11.670;2023-05-16T02:15:03;6.00;;;3.60;;
73693;SDS011;61997;53.974;11.670;2023-05-16T02:17:29;5.53;;;3.35;;
73693;SDS011;61997;53.974;11.670;2023-05-16T02:19:54;3.95;;;3.00;;
73693;SDS011;61997;53.974;11.670;2023-05-16T02:22:20;4.38;;;3.25;;
73693;SDS011;61997;53.974;11.670;2023-05-16T02:24:45;5.30;;;3.70;;
73693;SDS011;61997;53.974;11.670;2023-05-16T02:27:11;3.97;;;2.97;;
73693;SDS011;61997;53.974;11.670;2023-05-16T02:29:36;4.90;;;3.38;;
73693;SDS011;61997;53.974;11.670;2023-05-16T02:32:01;5.22;;;3.03;;
73693;SDS011;61997;53.974;11.670;2023-05-16T02:34:27;4.78;;;3.35;;
73693;SDS011;61997;53.974;11.670;2023-05-16T02:36:52;6.82;;;3.40;;
73693;SDS011;61997;53.974;11.670;2023-05-16T02:39:17;5.15;;;2.92;;
73693;SDS011;61997;53.974;11.670;2023-05-16T02:41:43;5.35;;;3.15;;
73693;SDS011;61997;53.974;11.670;2023-05-16T02:44:08;5.63;;;3.30;;
73693;SDS011;61997;53.974;11.670;2023-05-16T02:46:33;5.15;;;3.10;;
73693;SDS011;61997;53.974;11.670;2023-05-16T02:48:59;4.75;;;2.90;;
73693;SDS011;61997;53.974;11.670;2023-05-16T02:51:26;5.03;;;3.00;;
73693;SDS011;61997;53.974;11.670;2023-05-16T02:53:52;3.72;;;2.50;;
73693;SDS011;61997;53.974;11.670;2023-05-16T02:56:18;4.57;;;2.75;;
73693;SDS011;61997;53.974;11.670;2023-05-16T02:58:46;4.13;;;2.97;;
73693;SDS011;61997;53.974;11.670;2023-05-16T03:01:12;3.97;;;2.97;;
73693;SDS011;61997;53.974;11.670;2023-05-16T03:03:38;3.35;;;2.70;;
73693;SDS011;61997;53.974;11.670;2023-05-16T03:06:03;4.55;;;3.08;;
73693;SDS011;61997;53.974;11.670;2023-05-16T03:08:28;4.85;;;3.15;;
73693;SDS011;61997;53.974;11.670;2023-05-16T03:10:54;4.60;;;2.65;;
73693;SDS011;61997;53.974;11.670;2023-05-16T03:13:19;3.47;;;2.60;;
73693;SDS011;61997;53.974;11.670;2023-05-16T03:15:45;4.10;;;2.75;;
73693;SDS011;61997;53.974;11.670;2023-05-16T03:18:11;3.97;;;2.83;;
73693;SDS011;61997;53.974;11.670;2023-05-16T03:20:37;4.03;;;3.00;;
73693;SDS011;61997;53.974;11.670;2023-05-16T03:23:02;4.53;;;3.15;;
73693;SDS011;61997;53.974;11.670;2023-05-16T03:25:31;4.43;;;3.53;;
73693;SDS011;61997;53.974;11.670;2023-05-16T03:28:01;3.97;;;2.75;;
73693;SDS011;61997;53.974;11.670;2023-05-16T03:30:27;3.30;;;2.38;;
73693;SDS011;61997;53.974;11.670;2023-05-16T03:32:52;3.35;;;2.50;;
73693;SDS011;61997;53.974;11.670;2023-05-16T03:35:17;3.53;;;2.50;;
73693;SDS011;61997;53.974;11.670;2023-05-16T03:37:43;3.88;;;2.60;;
73693;SDS011;61997;53.974;11.670;2023-05-16T03:40:08;3.85;;;2.53;;
73693;SDS011;61997;53.974;11.670;2023-05-16T03:42:35;4.07;;;2.72;;
73693;SDS011;61997;53.974;11.670;2023-05-16T03:45:00;3.70;;;2.40;;
73693;SDS011;61997;53.974;11.670;2023-05-16T03:47:26;4.50;;;2.55;;
73693;SDS011;61997;53.974;11.670;2023-05-16T03:49:55;3.20;;;2.20;;
73693;SDS011;61997;53.974;11.670;2023-05-16T03:52:20;3.22;;;2.30;;
73693;SDS011;61997;53.974;11.670;2023-05-16T03:54:46;4.85;;;2.17;;
73693;SDS011;61997;53.974;11.670;2023-05-16T03:57:13;3.15;;;2.30;;
73693;SDS011;61997;53.974;11.670;2023-05-16T03:59:39;3.78;;;2.38;;
73693;SDS011;61997;53.974;11.670;2023-05-16T04:02:05;4.38;;;2.40;;
73693;SDS011;61997;53.974;11.670;2023-05-16T04:04:30;5.07;;;2.58;;
73693;SDS011;61997;53.974;11.670;2023-05-16T04:06:56;2.90;;;2.20;;
73693;SDS011;61997;53.974;11.670;2023-05-16T04:09:21;3.97;;;2.45;;
73693;SDS011;61997;53.974;11.670;2023-05-16T04:11:46;3.88;;;2.22;;
73693;SDS011;61997;53.974;11.670;2023-05-16T04:14:12;3.55;;;2.05;;
73693;SDS011;61997;53.974;11.670;2023-05-16T04:16:38;3.20;;;2.00;;
73693;SDS011;61997;53.974;11.670;2023-05-16T04:19:03;2.90;;;2.00;;
73693;SDS011;61997;53.974;11.670;2023-05-16T04:21:29;5.13;;;2.40;;
73693;SDS011;61997;53.974;11.670;2023-05-16T04:23:55;3.47;;;2.00;;
73693;SDS011;61997;53.974;11.670;2023-05-16T04:26:21;5.53;;;2.40;;
73693;SDS011;61997;53.974;11.670;2023-05-16T04:28:47;2.95;;;2.20;;
73693;SDS011;61997;53.974;11.670;2023-05-16T04:31:12;2.70;;;1.95;;
73693;SDS011;61997;53.974;11.670;2023-05-16T04:33:38;3.03;;;1.95;;
73693;SDS011;61997;53.974;11.670;2023-05-16T04:36:04;4.05;;;1.88;;
73693;SDS011;61997;53.974;11.670;2023-05-16T04:38:30;3.33;;;2.17;;
73693;SDS011;61997;53.974;11.670;2023-05-16T04:40:56;3.50;;;2.13;;
73693;SDS011;61997;53.974;11.670;2023-05-16T04:43:21;3.10;;;2.20;;
73693;SDS011;61997;53.974;11.670;2023-05-16T04:45:47;2.50;;;1.70;;
73693;SDS011;61997;53.974;11.670;2023-05-16T04:48:12;3.38;;;2.10;;
73693;SDS011;61997;53.974;11.670;2023-05-16T04:50:38;4.07;;;2.05;;
73693;SDS011;61997;53.974;11.670;2023-05-16T04:53:05;3.40;;;2.08;;
73693;SDS011;61997;53.974;11.670;2023-05-16T04:55:32;2.60;;;1.50;;
73693;SDS011;61997;53.974;11.670;2023-05-16T04:57:57;2.50;;;1.70;;
73693;SDS011;61997;53.974;11.670;2023-05-16T05:00:23;2.20;;;1.58;;
73693;SDS011;61997;53.974;11.670;2023-05-16T05:02:49;3.53;;;1.98;;
73693;SDS011;61997;53.974;11.670;2023-05-16T05:05:14;2.47;;;1.45;;
73693;SDS011;61997;53.974;11.670;2023-05-16T05:07:40;2.90;;;1.60;;
73693;SDS011;61997;53.974;11.670;2023-05-16T05:10:09;3.85;;;1.63;;
73693;SDS011;61997;53.974;11.670;2023-05-16T05:12:35;3.28;;;2.30;;
73693;SDS011;61997;53.974;11.670;2023-05-16T05:15:01;3.03;;;1.73;;
73693;SDS011;61997;53.974;11.670;2023-05-16T05:17:27;5.03;;;2.10;;
73693;SDS011;61997;53.974;11.670;2023-05-16T05:19:53;2.65;;;1.50;;
73693;SDS011;61997;53.974;11.670;2023-05-16T05:22:19;2.50;;;1.52;;
73693;SDS011;61997;53.974;11.670;2023-05-16T05:24:44;3.03;;;1.95;;
73693;SDS011;61997;53.974;11.670;2023-05-16T05:27:10;2.58;;;1.55;;
73693;SDS011;61997;53.974;11.670;2023-05-16T05:29:35;2.88;;;1.67;;
73693;SDS011;61997;53.974;11.670;2023-05-16T05:32:01;3.28;;;1.75;;
73693;SDS011;61997;53.974;11.670;2023-05-16T05:34:26;3.58;;;2.00;;
73693;SDS011;61997;53.974;11.670;2023-05-16T05:36:51;3.42;;;1.95;;
73693;SDS011;61997;53.974;11.670;2023-05-16T05:39:17;3.83;;;2.05;;
73693;SDS011;61997;53.974;11.670;2023-05-16T05:41:42;3.50;;;2.75;;
73693;SDS011;61997;53.974;11.670;2023-05-16T05:44:08;3.65;;;1.45;;
73693;SDS011;61997;53.974;11.670;2023-05-16T05:46:33;2.67;;;1.70;;
73693;SDS011;61997;53.974;11.670;2023-05-16T05:48:59;2.95;;;1.73;;
73693;SDS011;61997;53.974;11.670;2023-05-16T05:51:25;3.47;;;2.30;;
73693;SDS011;61997;53.974;11.670;2023-05-16T05:53:51;3.42;;;1.85;;
73693;SDS011;61997;53.974;11.670;2023-05-16T05:56:17;3.15;;;1.48;;
73693;SDS011;61997;53.974;11.670;2023-05-16T05:58:42;2.92;;;1.77;;
73693;SDS011;61997;53.974;11.670;2023-05-16T06:01:09;3.78;;;1.90;;
73693;SDS011;61997;53.974;11.670;2023-05-16T06:03:35;2.75;;;1.60;;
73693;SDS011;61997;53.974;11.670;2023-05-16T06:06:01;2.80;;;1.80;;
73693;SDS011;61997;53.974;11.670;2023-05-16T06:08:28;2.72;;;1.70;;
73693;SDS011;61997;53.974;11.670;2023-05-16T06:10:53;3.38;;;1.70;;
73693;SDS011;61997;53.974;11.670;2023-05-16T06:13:18;3.50;;;1.77;;
73693;SDS011;61997;53.974;11.670;2023-05-16T06:15:48;4.68;;;1.98;;
73693;SDS011;61997;53.974;11.670;2023-05-16T06:18:14;3.67;;;1.65;;
73693;SDS011;61997;53.974;11.670;2023-05-16T06:20:40;3.15;;;1.85;;
73693;SDS011;61997;53.974;11.670;2023-05-16T06:23:05;2.33;;;1.58;;
73693;SDS011;61997;53.974;11.670;2023-05-16T06:25:30;4.35;;;2.10;;
73693;SDS011;61997;53.974;11.670;2023-05-16T06:27:56;3.83;;;1.70;;
73693;SDS011;61997;53.974;11.670;2023-05-16T06:30:22;3.03;;;1.90;;
73693;SDS011;61997;53.974;11.670;2023-05-16T06:32:47;3.70;;;1.30;;
73693;SDS011;61997;53.974;11.670;2023-05-16T06:35:13;3.53;;;1.70;;
73693;SDS011;61997;53.974;11.670;2023-05-16T06:37:38;4.65;;;1.73;;
73693;SDS011;61997;53.974;11.670;2023-05-16T06:40:04;4.60;;;1.80;;
73693;SDS011;61997;53.974;11.670;2023-05-16T06:42:30;3.55;;;1.45;;
73693;SDS011;61997;53.974;11.670;2023-05-16T06:44:56;3.72;;;1.90;;
73693;SDS011;61997;53.974;11.670;2023-05-16T06:47:21;5.78;;;1.85;;
73693;SDS011;61997;53.974;11.670;2023-05-16T06:49:47;3.47;;;2.03;;
73693;SDS011;61997;53.974;11.670;2023-05-16T06:52:12;3.67;;;1.60;;
73693;SDS011;61997;53.974;11.670;2023-05-16T06:54:37;5.93;;;2.05;;
73693;SDS011;61997;53.974;11.670;2023-05-16T06:57:03;5.47;;;1.70;;
73693;SDS011;61997;53.974;11.670;2023-05-16T06:59:29;3.33;;;1.75;;
73693;SDS011;61997;53.974;11.670;2023-05-16T07:01:55;4.32;;;1.70;;
73693;SDS011;61997;53.974;11.670;2023-05-16T07:04:20;2.58;;;1.30;;
73693;SDS011;61997;53.974;11.670;2023-05-16T07:06:46;4.32;;;1.73;;
73693;SDS011;61997;53.974;11.670;2023-05-16T07:09:11;4.68;;;2.00;;
73693;SDS011;61997;53.974;11.670;2023-05-16T07:11:37;4.50;;;1.50;;
73693;SDS011;61997;53.974;11.670;2023-05-16T07:14:02;3.35;;;1.58;;
73693;SDS011;61997;53.974;11.670;2023-05-16T07:16:27;3.92;;;1.45;;
73693;SDS011;61997;53.974;11.670;2023-05-16T07:18:53;6.25;;;1.50;;
73693;SDS011;61997;53.974;11.670;2023-05-16T07:21:18;3.22;;;1.50;;
73693;SDS011;61997;53.974;11.670;2023-05-16T07:23:44;5.35;;;1.67;;
73693;SDS011;61997;53.974;11.670;2023-05-16T07:26:09;4.28;;;1.50;;
73693;SDS011;61997;53.974;11.670;2023-05-16T07:28:35;3.58;;;1.40;;
73693;SDS011;61997;53.974;11.670;2023-05-16T07:31:01;5.35;;;1.45;;
73693;SDS011;61997;53.974;11.670;2023-05-16T07:33:26;4.00;;;1.48;;
73693;SDS011;61997;53.974;11.670;2023-05-16T07:35:52;2.67;;;1.50;;
73693;SDS011;61997;53.974;11.670;2023-05-16T07:38:19;3.15;;;1.27;;
73693;SDS011;61997;53.974;11.670;2023-05-16T07:40:45;4.30;;;1.73;;
73693;SDS011;61997;53.974;11.670;2023-05-16T07:43:11;3.42;;;1.60;;
73693;SDS011;61997;53.974;11.670;2023-05-16T07:45:36;3.90;;;1.40;;
73693;SDS011;61997;53.974;11.670;2023-05-16T07:48:02;2.90;;;1.42;;
73693;SDS011;61997;53.974;11.670;2023-05-16T07:50:28;3.67;;;1.38;;
73693;SDS011;61997;53.974;11.670;2023-05-16T07:52:53;2.83;;;1.15;;
73693;SDS011;61997;53.974;11.670;2023-05-16T07:55:19;3.60;;;1.40;;
73693;SDS011;61997;53.974;11.670;2023-05-16T07:57:46;5.60;;;1.52;;
73693;SDS011;61997;53.974;11.670;2023-05-16T08:00:12;3.65;;;1.30;;
73693;SDS011;61997;53.974;11.670;2023-05-16T08:02:38;2.50;;;1.33;;
73693;SDS011;61997;53.974;11.670;2023-05-16T08:05:04;3.50;;;1.55;;
73693;SDS011;61997;53.974;11.670;2023-05-16T08:07:30;4.43;;;1.52;;
73693;SDS011;61997;53.974;11.670;2023-05-16T08:09:56;3.47;;;1.00;;
73693;SDS011;61997;53.974;11.670;2023-05-16T08:12:22;2.90;;;1.30;;
73693;SDS011;61997;53.974;11.670;2023-05-16T08:14:47;2.50;;;1.38;;
73693;SDS011;61997;53.974;11.670;2023-05-16T08:17:13;3.75;;;1.50;;
73693;SDS011;61997;53.974;11.670;2023-05-16T08:19:38;3.50;;;1.33;;
73693;SDS011;61997;53.974;11.670;2023-05-16T08:22:05;3.67;;;1.42;;
73693;SDS011;61997;53.974;11.670;2023-05-16T08:24:31;5.00;;;1.45;;
73693;SDS011;61997;53.974;11.670;2023-05-16T08:26:56;3.80;;;1.25;;
73693;SDS011;61997;53.974;11.670;2023-05-16T08:29:21;3.05;;;1.33;;
73693;SDS011;61997;53.974;11.670;2023-05-16T08:31:47;2.72;;;1.17;;
73693;SDS011;61997;53.974;11.670;2023-05-16T08:34:12;4.25;;;1.35;;
73693;SDS011;61997;53.974;11.670;2023-05-16T08:36:38;3.15;;;1.20;;
73693;SDS011;61997;53.974;11.670;2023-05-16T08:39:03;2.20;;;0.95;;
73693;SDS011;61997;53.974;11.670;2023-05-16T08:41:30;1.75;;;0.98;;
73693;SDS011;61997;53.974;11.670;2023-05-16T08:43:55;2.97;;;1.25;;
73693;SDS011;61997;53.974;11.670;2023-05-16T08:46:22;4.43;;;1.25;;
73693;SDS011;61997;53.974;11.670;2023-05-16T08:48:51;4.53;;;1.38;;
73693;SDS011;61997;53.974;11.670;2023-05-16T08:51:17;3.47;;;1.27;;
73693;SDS011;61997;53.974;11.670;2023-05-16T08:53:44;1.70;;;1.00;;
73693;SDS011;61997;53.974;11.670;2023-05-16T08:56:11;3.50;;;1.33;;
73693;SDS011;61997;53.974;11.670;2023-05-16T08:58:37;2.88;;;1.00;;
73693;SDS011;61997;53.974;11.670;2023-05-16T09:01:03;3.50;;;1.40;;
73693;SDS011;61997;53.974;11.670;2023-05-16T09:03:34;3.42;;;1.10;;
73693;SDS011;61997;53.974;11.670;2023-05-16T09:06:00;4.53;;;1.10;;
73693;SDS011;61997;53.974;11.670;2023-05-16T09:08:27;4.20;;;1.17;;
73693;SDS011;61997;53.974;11.670;2023-05-16T09:10:52;2.35;;;1.17;;
73693;SDS011;61997;53.974;11.670;2023-05-16T09:13:18;4.35;;;1.27;;
73693;SDS011;61997;53.974;11.670;2023-05-16T09:15:43;3.25;;;1.45;;
73693;SDS011;61997;53.974;11.670;2023-05-16T09:18:11;4.22;;;1.30;;
73693;SDS011;61997;53.974;11.670;2023-05-16T09:20:41;3.50;;;1.30;;
73693;SDS011;61997;53.974;11.670;2023-05-16T09:23:10;4.07;;;2.08;;
73693;SDS011;61997;53.974;11.670;2023-05-16T09:25:35;4.18;;;1.63;;
73693;SDS011;61997;53.974;11.670;2023-05-16T09:28:01;2.90;;;1.17;;
73693;SDS011;61997;53.974;11.670;2023-05-16T09:30:27;3.25;;;1.15;;
73693;SDS011;61997;53.974;11.670;2023-05-16T09:32:54;4.72;;;1.33;;
73693;SDS011;61997;53.974;11.670;2023-05-16T09:35:20;2.95;;;1.20;;
73693;SDS011;61997;53.974;11.670;2023-05-16T09:37:46;3.97;;;1.48;;
73693;SDS011;61997;53.974;11.670;2023-05-16T09:40:14;3.97;;;1.50;;
73693;SDS011;61997;53.974;11.670;2023-05-16T09:42:40;4.43;;;1.40;;
73693;SDS011;61997;53.974;11.670;2023-05-16T09:45:06;2.70;;;1.20;;
73693;SDS011;61997;53.974;11.670;2023-05-16T09:47:36;4.43;;;1.10;;
73693;SDS011;61997;53.974;11.670;2023-05-16T09:50:09;3.83;;;0.93;;
73693;SDS011;61997;53.974;11.670;2023-05-16T09:52:36;3.22;;;1.13;;
73693;SDS011;61997;53.974;11.670;2023-05-16T09:55:02;4.97;;;1.10;;
73693;SDS011;61997;53.974;11.670;2023-05-16T09:57:31;2.30;;;1.05;;
73693;SDS011;61997;53.974;11.670;2023-05-16T09:59:58;4.10;;;1.30;;
73693;SDS011;61997;53.974;11.670;2023-05-16T10:04:50;2.03;;;0.90;;
73693;SDS011;61997;53.974;11.670;2023-05-16T10:07:15;4.72;;;1.27;;
73693;SDS011;61997;53.974;11.670;2023-05-16T10:09:41;4.28;;;1.00;;
73693;SDS011;61997;53.974;11.670;2023-05-16T10:12:07;1.95;;;1.00;;
73693;SDS011;61997;53.974;11.670;2023-05-16T10:14:36;2.45;;;1.17;;
73693;SDS011;61997;53.974;11.670;2023-05-16T10:17:07;2.40;;;1.02;;
73693;SDS011;61997;53.974;11.670;2023-05-16T10:22:03;2.95;;;1.15;;
73693;SDS011;61997;53.974;11.670;2023-05-16T10:24:38;2.60;;;0.80;;
73693;SDS011;61997;53.974;11.670;2023-05-16T10:27:10;3.05;;;0.90;;
73693;SDS011;61997;53.974;11.670;2023-05-16T10:29:37;3.10;;;1.10;;
73693;SDS011;61997;53.974;11.670;2023-05-16T10:32:03;2.55;;;1.00;;
73693;SDS011;61997;53.974;11.670;2023-05-16T10:34:30;1.80;;;0.85;;
73693;SDS011;61997;53.974;11.670;2023-05-16T10:36:56;1.67;;;0.68;;
73693;SDS011;61997;53.974;11.670;2023-05-16T10:39:22;2.55;;;1.15;;
73693;SDS011;61997;53.974;11.670;2023-05-16T10:41:48;3.00;;;0.90;;
73693;SDS011;61997;53.974;11.670;2023-05-16T10:44:14;3.33;;;0.98;;
73693;SDS011;61997;53.974;11.670;2023-05-16T10:46:42;2.53;;;1.00;;
73693;SDS011;61997;53.974;11.670;2023-05-16T10:49:21;3.70;;;1.02;;
73693;SDS011;61997;53.974;11.670;2023-05-16T10:52:04;3.53;;;1.08;;
73693;SDS011;61997;53.974;11.670;2023-05-16T10:54:35;2.50;;;1.08;;
73693;SDS011;61997;53.974;11.670;2023-05-16T10:57:05;2.55;;;1.00;;
73693;SDS011;61997;53.974;11.670;2023-05-16T11:00:05;3.17;;;1.00;;
73693;SDS011;61997;53.974;11.670;2023-05-16T11:04:57;3.20;;;1.00;;
73693;SDS011;61997;53.974;11.670;2023-05-16T11:07:24;5.88;;;1.30;;
73693;SDS011;61997;53.974;11.670;2023-05-16T11:10:04;1.83;;;0.70;;
73693;SDS011;61997;53.974;11.670;2023-05-16T11:12:47;2.55;;;1.00;;
73693;SDS011;61997;53.974;11.670;2023-05-16T11:15:26;4.07;;;1.00;;
73693;SDS011;61997;53.974;11.670;2023-05-16T11:20:40;2.72;;;0.90;;
73693;SDS011;61997;53.974;11.670;2023-05-16T11:25:44;2.75;;;0.77;;
73693;SDS011;61997;53.974;11.670;2023-05-16T11:28:13;3.28;;;1.05;;
73693;SDS011;61997;53.974;11.670;2023-05-16T11:33:08;2.13;;;0.85;;
73693;SDS011;61997;53.974;11.670;2023-05-16T11:35:33;2.15;;;1.00;;
73693;SDS011;61997;53.974;11.670;2023-05-16T11:37:59;2.80;;;0.90;;
73693;SDS011;61997;53.974;11.670;2023-05-16T11:40:25;1.92;;;0.80;;
73693;SDS011;61997;53.974;11.670;2023-05-16T11:42:50;3.20;;;0.98;;
73693;SDS011;61997;53.974;11.670;2023-05-16T11:45:16;2.13;;;1.42;;
73693;SDS011;61997;53.974;11.670;2023-05-16T11:47:43;2.30;;;0.90;;
73693;SDS011;61997;53.974;11.670;2023-05-16T11:50:10;2.38;;;0.90;;
73693;SDS011;61997;53.974;11.670;2023-05-16T11:52:37;2.45;;;0.73;;
73693;SDS011;61997;53.974;11.670;2023-05-16T11:55:04;1.92;;;0.70;;
73693;SDS011;61997;53.974;11.670;2023-05-16T11:57:31;3.08;;;1.00;;
73693;SDS011;61997;53.974;11.670;2023-05-16T12:00:30;2.63;;;0.80;;
73693;SDS011;61997;53.974;11.670;2023-05-16T12:02:50;2.90;;;0.60;;
73693;SDS011;61997;53.974;11.670;2023-05-16T12:05:17;2.70;;;0.70;;
73693;SDS011;61997;53.974;11.670;2023-05-16T12:07:44;3.08;;;0.80;;
73693;SDS011;61997;53.974;11.670;2023-05-16T12:10:11;1.58;;;1.13;;
73693;SDS011;61997;53.974;11.670;2023-05-16T12:12:41;2.30;;;0.98;;
73693;SDS011;61997;53.974;11.670;2023-05-16T12:15:08;2.35;;;0.75;;
73693;SDS011;61997;53.974;11.670;2023-05-16T12:17:34;1.92;;;0.80;;
73693;SDS011;61997;53.974;11.670;2023-05-16T12:20:00;3.05;;;0.82;;
73693;SDS011;61997;53.974;11.670;2023-05-16T12:22:26;1.85;;;1.10;;
73693;SDS011;61997;53.974;11.670;2023-05-16T12:24:52;2.25;;;0.80;;
73693;SDS011;61997;53.974;11.670;2023-05-16T12:27:23;5.10;;;1.92;;
73693;SDS011;61997;53.974;11.670;2023-05-16T12:29:50;2.63;;;0.75;;
73693;SDS011;61997;53.974;11.670;2023-05-16T12:32:19;3.13;;;1.00;;
73693;SDS011;61997;53.974;11.670;2023-05-16T12:34:49;3.03;;;1.10;;
73693;SDS011;61997;53.974;11.670;2023-05-16T12:37:16;1.25;;;0.60;;
73693;SDS011;61997;53.974;11.670;2023-05-16T12:39:42;2.13;;;0.77;;
73693;SDS011;61997;53.974;11.670;2023-05-16T12:42:11;3.38;;;0.75;;
73693;SDS011;61997;53.974;11.670;2023-05-16T12:44:43;2.72;;;0.80;;
73693;SDS011;61997;53.974;11.670;2023-05-16T12:47:16;1.58;;;0.70;;
73693;SDS011;61997;53.974;11.670;2023-05-16T12:49:44;3.30;;;0.80;;
73693;SDS011;61997;53.974;11.670;2023-05-16T12:52:21;2.80;;;0.77;;
73693;SDS011;61997;53.974;11.670;2023-05-16T12:54:47;1.52;;;0.73;;
73693;SDS011;61997;53.974;11.670;2023-05-16T12:57:13;2.10;;;0.80;;
73693;SDS011;61997;53.974;11.670;2023-05-16T12:59:40;1.58;;;0.88;;
73693;SDS011;61997;53.974;11.670;2023-05-16T13:02:06;3.15;;;1.10;;
73693;SDS011;61997;53.974;11.670;2023-05-16T13:04:32;2.85;;;0.73;;
73693;SDS011;61997;53.974;11.670;2023-05-16T13:06:57;2.40;;;0.90;;
73693;SDS011;61997;53.974;11.670;2023-05-16T13:09:23;2.35;;;0.88;;
73693;SDS011;61997;53.974;11.670;2023-05-16T13:11:48;4.25;;;0.90;;
73693;SDS011;61997;53.974;11.670;2023-05-16T13:14:14;2.03;;;0.90;;
73693;SDS011;61997;53.974;11.670;2023-05-16T13:16:41;1.52;;;0.77;;
73693;SDS011;61997;53.974;11.670;2023-05-16T13:19:07;2.10;;;0.70;;
73693;SDS011;61997;53.974;11.670;2023-05-16T13:21:33;2.63;;;0.93;;
73693;SDS011;61997;53.974;11.670;2023-05-16T13:23:58;3.92;;;0.80;;
73693;SDS011;61997;53.974;11.670;2023-05-16T13:26:24;3.05;;;1.00;;
73693;SDS011;61997;53.974;11.670;2023-05-16T13:28:49;3.30;;;1.05;;
73693;SDS011;61997;53.974;11.670;2023-05-16T13:31:18;2.92;;;0.90;;
73693;SDS011;61997;53.974;11.670;2023-05-16T13:33:44;3.67;;;0.80;;
73693;SDS011;61997;53.974;11.670;2023-05-16T13:36:09;3.50;;;1.08;;
73693;SDS011;61997;53.974;11.670;2023-05-16T13:38:36;2.17;;;1.02;;
73693;SDS011;61997;53.974;11.670;2023-05-16T13:41:01;1.60;;;0.70;;
73693;SDS011;61997;53.974;11.670;2023-05-16T13:43:26;2.30;;;0.80;;
73693;SDS011;61997;53.974;11.670;2023-05-16T13:45:52;1.85;;;0.63;;
73693;SDS011;61997;53.974;11.670;2023-05-16T13:48:17;3.65;;;1.10;;
73693;SDS011;61997;53.974;11.670;2023-05-16T13:50:43;4.45;;;0.90;;
73693;SDS011;61997;53.974;11.670;2023-05-16T13:53:08;3.70;;;1.20;;
73693;SDS011;61997;53.974;11.670;2023-05-16T13:55:34;2.67;;;0.68;;
73693;SDS011;61997;53.974;11.670;2023-05-16T13:57:59;1.92;;;0.85;;
73693;SDS011;61997;53.974;11.670;2023-05-16T14:00:25;2.72;;;1.00;;
73693;SDS011;61997;53.974;11.670;2023-05-16T14:02:50;1.40;;;0.63;;
73693;SDS011;61997;53.974;11.670;2023-05-16T14:05:16;2.20;;;0.85;;
73693;SDS011;61997;53.974;11.670;2023-05-16T14:07:42;4.15;;;0.80;;
73693;SDS011;61997;53.974;11.670;2023-05-16T14:10:07;2.25;;;0.80;;
73693;SDS011;61997;53.974;11.670;2023-05-16T14:12:33;4.90;;;1.08;;
73693;SDS011;61997;53.974;11.670;2023-05-16T14:14:58;2.25;;;0.60;;
73693;SDS011;61997;53.974;11.670;2023-05-16T14:17:24;2.75;;;0.73;;
73693;SDS011;61997;53.974;11.670;2023-05-16T14:19:49;1.05;;;0.52;;
73693;SDS011;61997;53.974;11.670;2023-05-16T14:22:15;3.05;;;0.85;;
73693;SDS011;61997;53.974;11.670;2023-05-16T14:24:40;4.38;;;0.85;;
73693;SDS011;61997;53.974;11.670;2023-05-16T14:27:05;1.58;;;0.75;;
73693;SDS011;61997;53.974;11.670;2023-05-16T14:29:31;4.20;;;0.80;;
73693;SDS011;61997;53.974;11.670;2023-05-16T14:31:56;2.53;;;0.80;;
73693;SDS011;61997;53.974;11.670;2023-05-16T14:34:21;2.90;;;1.02;;
73693;SDS011;61997;53.974;11.670;2023-05-16T14:36:47;2.05;;;0.73;;
73693;SDS011;61997;53.974;11.670;2023-05-16T14:39:12;2.35;;;0.63;;
73693;SDS011;61997;53.974;11.670;2023-05-16T14:41:38;2.97;;;0.90;;
73693;SDS011;61997;53.974;11.670;2023-05-16T14:44:04;3.20;;;0.73;;
73693;SDS011;61997;53.974;11.670;2023-05-16T14:46:29;2.92;;;0.85;;
73693;SDS011;61997;53.974;11.670;2023-05-16T14:48:54;5.18;;;0.80;;
73693;SDS011;61997;53.974;11.670;2023-05-16T14:51:20;3.15;;;1.00;;
73693;SDS011;61997;53.974;11.670;2023-05-16T14:53:45;2.83;;;0.90;;
73693;SDS011;61997;53.974;11.670;2023-05-16T14:56:11;4.03;;;0.75;;
73693;SDS011;61997;53.974;11.670;2023-05-16T14:58:36;1.92;;;0.75;;